Time;durP1;ratioP1;P1;durP2;ratioP2;P2;SDS_P1;SDS_P2;PMS_P1;PMS_P2;Temp;Humidity;BMP_temperature;BMP_pressure;BME280_temperature;BME280_humidity;BME280_pressure;Samples;Min_cycle;Max_cycle;Signal;HPM_P1;HPM_P2
2020/12/04 00:00:23;;;;;;;0.10;0.10;;;11.20;99.90;;;;;;5070536;28;20047;-89
2020/12/04 00:02:49;;;;;;;0.15;0.15;;;11.30;99.90;;;;;;5070878;28;20077;-89
2020/12/04 00:05:15;;;;;;;1.98;0.95;;;11.20;99.90;;;;;;5071161;28;20016;-89
2020/12/04 00:07:40;;;;;;;0.43;0.43;;;11.20;99.90;;;;;;5070728;28;20028;-89
2020/12/04 00:10:06;;;;;;;0.30;0.30;;;11.10;99.90;;;;;;5069499;28;20709;-89
2020/12/04 00:12:32;;;;;;;0.20;0.20;;;11.20;99.90;;;;;;5070952;28;20110;-90
2020/12/04 00:14:58;;;;;;;1.10;0.73;;;11.20;99.90;;;;;;5066382;28;20021;-90
2020/12/04 00:17:24;;;;;;;3.63;0.90;;;11.10;99.90;;;;;;5086128;28;20044;-90
2020/12/04 00:19:49;;;;;;;0.20;0.20;;;11.20;99.90;;;;;;5069893;28;20504;-91
2020/12/04 00:22:15;;;;;;;0.10;0.10;;;11.20;99.90;;;;;;5065301;28;20033;-90
2020/12/04 00:24:41;;;;;;;0.10;0.10;;;11.20;99.90;;;;;;5070292;28;20059;-91
2020/12/04 00:27:07;;;;;;;0.73;0.30;;;11.20;99.90;;;;;;5068942;28;20132;-92
2020/12/04 00:29:32;;;;;;;0.35;0.35;;;11.10;99.90;;;;;;5067704;28;20025;-92
2020/12/04 00:31:58;;;;;;;0.32;0.30;;;11.10;99.90;;;;;;5065646;28;20032;-92
2020/12/04 00:34:25;;;;;;;0.50;0.50;;;11.00;99.90;;;;;;5070658;28;20029;-91
2020/12/04 00:36:51;;;;;;;0.28;0.28;;;11.00;99.90;;;;;;5069910;28;20033;-92
2020/12/04 00:39:17;;;;;;;0.57;0.57;;;11.00;99.90;;;;;;5078227;28;20029;-91
2020/12/04 00:41:44;;;;;;;0.57;0.57;;;10.90;99.90;;;;;;5064940;28;20051;-92
2020/12/04 01:19:17;;;;;;;0.17;0.17;;;9.60;99.90;;;;;;5123237;27;20443;-85
2020/12/04 01:21:46;;;;;;;0.80;0.63;;;8.70;99.90;;;;;;5126912;27;20375;-85
2020/12/04 01:24:11;;;;;;;0.10;0.10;;;8.80;99.90;;;;;;5123874;27;20023;-85
2020/12/04 01:26:39;;;;;;;0.10;0.10;;;9.10;99.90;;;;;;5124077;27;20510;-85
2020/12/04 01:29:05;;;;;;;0.10;0.10;;;8.90;99.90;;;;;;5122614;28;20088;-85
2020/12/04 01:31:31;;;;;;;0.10;0.10;;;9.00;99.90;;;;;;5121838;27;20039;-86
2020/12/04 01:34:00;;;;;;;0.20;0.20;;;9.10;99.90;;;;;;5121590;27;20034;-85
2020/12/04 01:36:26;;;;;;;0.13;0.13;;;9.10;99.90;;;;;;5125275;27;20020;-85
2020/12/04 01:38:52;;;;;;;0.20;0.20;;;8.90;99.90;;;;;;5120343;28;20020;-84
2020/12/04 01:41:18;;;;;;;0.03;0.03;;;9.10;99.90;;;;;;5123200;28;20407;-83
2020/12/04 01:43:44;;;;;;;0.10;0.10;;;9.10;99.90;;;;;;5119117;27;20032;-83
2020/12/04 01:46:10;;;;;;;0.05;0.05;;;9.00;99.90;;;;;;5122214;27;20103;-83
2020/12/04 01:48:36;;;;;;;0.15;0.15;;;9.00;99.90;;;;;;5121306;28;20027;-83
2020/12/04 01:51:02;;;;;;;0.10;0.10;;;9.00;99.90;;;;;;5125702;27;20022;-84
2020/12/04 01:53:28;;;;;;;0.20;0.20;;;9.10;99.90;;;;;;5125365;27;20031;-84
2020/12/04 01:55:55;;;;;;;0.10;0.10;;;9.10;99.90;;;;;;5124358;27;20045;-84
2020/12/04 01:58:20;;;;;;;0.00;0.00;;;9.00;99.90;;;;;;5124425;27;20059;-84
2020/12/04 02:00:46;;;;;;;0.03;0.03;;;8.90;99.90;;;;;;5124993;27;20086;-84
2020/12/04 02:03:14;;;;;;;0.10;0.10;;;8.60;99.90;;;;;;5125562;27;20118;-83
2020/12/04 02:06:05;;;;;;;0.20;0.20;;;8.80;99.90;;;;;;5125622;27;20115;-84
2020/12/04 02:09:02;;;;;;;0.10;0.10;;;9.20;99.90;;;;;;5122623;27;20031;-84
2020/12/04 02:11:30;;;;;;;0.10;0.10;;;9.10;99.90;;;;;;5102798;28;20089;-84
2020/12/04 02:13:58;;;;;;;0.10;0.10;;;9.20;99.90;;;;;;5103816;28;20388;-84
2020/12/04 02:16:24;;;;;;;0.10;0.10;;;9.20;99.90;;;;;;5100105;28;20026;-84
2020/12/04 02:18:51;;;;;;;0.10;0.10;;;9.00;99.90;;;;;;5098873;28;20080;-85
2020/12/04 02:21:17;;;;;;;0.08;0.08;;;8.70;99.90;;;;;;5089833;28;20522;-84
2020/12/04 02:23:48;;;;;;;0.10;0.10;;;9.00;99.90;;;;;;5089433;28;20055;-85
2020/12/04 02:26:19;;;;;;;0.00;0.00;;;9.00;99.90;;;;;;5090881;28;20052;-84
2020/12/04 02:28:45;;;;;;;0.10;0.10;;;8.80;99.90;;;;;;5091044;28;20119;-84
2020/12/04 02:31:11;;;;;;;0.00;0.00;;;8.80;99.90;;;;;;5090372;28;20016;-85
2020/12/04 02:33:37;;;;;;;0.10;0.10;;;8.90;99.90;;;;;;5091170;28;20048;-85
2020/12/04 02:36:04;;;;;;;0.10;0.10;;;8.90;99.90;;;;;;5091047;28;20468;-85
2020/12/04 02:38:30;;;;;;;0.10;0.10;;;8.90;99.90;;;;;;5090219;28;20020;-84
2020/12/04 04:23:14;;;;;;;2.42;0.90;;;9.10;99.90;;;;;;5085492;27;20381;-83
2020/12/04 04:25:40;;;;;;;0.10;0.10;;;9.00;99.90;;;;;;5085398;28;20441;-84
2020/12/04 04:28:11;;;;;;;0.10;0.10;;;9.00;99.90;;;;;;5087860;28;20077;-83
2020/12/04 04:30:40;;;;;;;0.10;0.10;;;9.00;99.90;;;;;;5079310;28;20023;-82
2020/12/04 04:33:06;;;;;;;0.10;0.10;;;9.00;99.90;;;;;;5084639;28;20036;-83
2020/12/04 04:35:32;;;;;;;0.22;0.22;;;9.00;99.90;;;;;;5082770;28;20035;-83
2020/12/04 04:37:59;;;;;;;0.10;0.10;;;9.00;99.90;;;;;;5085609;28;20028;-83
2020/12/04 04:40:25;;;;;;;0.13;0.13;;;9.00;99.90;;;;;;5084875;28;20036;-83
2020/12/04 04:43:11;;;;;;;0.03;0.03;;;9.00;99.90;;;;;;5084166;28;20107;-82
2020/12/04 04:45:45;;;;;;;0.10;0.10;;;9.00;99.90;;;;;;5076012;28;20024;-82
2020/12/04 04:48:28;;;;;;;0.20;0.20;;;9.00;99.90;;;;;;5073609;28;20024;-82
2020/12/04 04:50:56;;;;;;;0.00;0.00;;;9.10;99.90;;;;;;5079223;28;20032;-82
2020/12/04 04:53:23;;;;;;;0.08;0.08;;;9.00;99.90;;;;;;5085255;28;20071;-81
2020/12/04 04:55:49;;;;;;;0.00;0.00;;;9.00;99.90;;;;;;5083820;28;20027;-81
2020/12/04 04:58:15;;;;;;;0.00;0.00;;;9.00;99.90;;;;;;5084028;28;20408;-82
2020/12/04 05:00:41;;;;;;;0.10;0.10;;;9.00;99.90;;;;;;5086441;28;20032;-81
2020/12/04 05:03:17;;;;;;;0.10;0.10;;;9.10;99.90;;;;;;5083939;28;20503;-81
2020/12/04 05:05:53;;;;;;;0.65;0.65;;;9.10;99.90;;;;;;5084808;28;20047;-81
2020/12/04 05:08:21;;;;;;;0.80;0.63;;;9.20;99.90;;;;;;5093994;28;20110;-82
2020/12/04 05:10:48;;;;;;;0.10;0.10;;;9.20;99.90;;;;;;5095348;28;20067;-82
2020/12/04 05:13:19;;;;;;;0.10;0.10;;;9.10;99.90;;;;;;5084147;28;20016;-82
2020/12/04 05:15:45;;;;;;;0.10;0.10;;;9.20;99.90;;;;;;5080444;28;20045;-83
2020/12/04 05:18:18;;;;;;;0.10;0.10;;;9.20;99.90;;;;;;5079565;28;20576;-83
2020/12/04 05:20:52;;;;;;;0.10;0.10;;;9.20;99.90;;;;;;5068807;28;20043;-82
2020/12/04 05:23:19;;;;;;;0.10;0.10;;;9.20;99.90;;;;;;5070183;28;20036;-82
2020/12/04 05:25:47;;;;;;;2.90;0.77;;;9.10;99.90;;;;;;5069012;28;20039;-82
2020/12/04 05:28:23;;;;;;;0.20;0.20;;;9.20;99.90;;;;;;5061565;28;20105;-82
2020/12/04 05:31:07;;;;;;;0.10;0.10;;;9.20;99.90;;;;;;5065678;28;20029;-82
2020/12/04 05:33:33;;;;;;;0.10;0.10;;;9.10;99.90;;;;;;5058508;28;20044;-82
2020/12/04 05:35:59;;;;;;;0.10;0.10;;;9.10;99.90;;;;;;5067187;28;20093;-82
2020/12/04 05:38:25;;;;;;;0.10;0.10;;;9.10;99.90;;;;;;5069629;28;20028;-81
2020/12/04 05:41:08;;;;;;;0.10;0.10;;;9.10;99.90;;;;;;5066209;28;20036;-82
2020/12/04 05:43:35;;;;;;;0.10;0.10;;;9.10;99.90;;;;;;5061926;28;20035;-82
2020/12/04 05:46:19;;;;;;;0.00;0.00;;;9.10;99.90;;;;;;5056758;28;20028;-83
2020/12/04 05:48:56;;;;;;;0.03;0.03;;;9.10;99.90;;;;;;5063988;28;20107;-83
2020/12/04 05:51:30;;;;;;;0.10;0.10;;;9.10;99.90;;;;;;5058466;28;20024;-83
2020/12/04 05:53:56;;;;;;;1.20;0.73;;;9.20;99.90;;;;;;5064060;28;20107;-84
2020/12/04 05:56:23;;;;;;;0.10;0.10;;;9.20;99.90;;;;;;5057923;28;20020;-83
2020/12/04 05:58:53;;;;;;;0.10;0.10;;;9.20;99.90;;;;;;5063219;28;20037;-83
2020/12/04 06:01:20;;;;;;;0.10;0.10;;;9.20;99.90;;;;;;5059425;28;20137;-82
2020/12/04 06:03:55;;;;;;;0.10;0.10;;;9.20;99.90;;;;;;5068543;28;20396;-82
2020/12/04 06:06:32;;;;;;;0.10;0.10;;;9.20;99.90;;;;;;5054634;28;20017;-81
2020/12/04 06:09:05;;;;;;;0.10;0.10;;;9.20;99.90;;;;;;5060232;28;20516;-82
2020/12/04 06:11:38;;;;;;;0.28;0.28;;;9.10;99.90;;;;;;5068695;28;20156;-81
2020/12/04 06:14:20;;;;;;;0.10;0.10;;;9.20;99.90;;;;;;5064781;28;20159;-81
2020/12/04 06:17:01;;;;;;;0.10;0.10;;;9.20;99.90;;;;;;5054027;28;20033;-82
2020/12/04 06:19:34;;;;;;;0.10;0.10;;;9.20;99.90;;;;;;5054197;28;20032;-82
2020/12/04 06:22:19;;;;;;;0.10;0.10;;;9.30;99.90;;;;;;5054088;28;20056;-84
2020/12/04 06:24:54;;;;;;;0.20;0.20;;;9.30;99.90;;;;;;5060286;28;20024;-85
2020/12/04 06:27:41;;;;;;;0.08;0.08;;;9.30;99.90;;;;;;5054979;28;20058;-84
2020/12/04 06:30:09;;;;;;;0.10;0.10;;;9.20;99.90;;;;;;5068994;28;20108;-86
2020/12/04 06:32:42;;;;;;;0.05;0.05;;;9.20;99.90;;;;;;5067151;28;20033;-85
2020/12/04 06:35:09;;;;;;;0.30;0.30;;;9.10;99.90;;;;;;5061772;28;20028;-86
2020/12/04 06:37:44;;;;;;;0.10;0.10;;;9.20;99.90;;;;;;5055028;28;20025;-86
2020/12/04 06:40:27;;;;;;;0.10;0.10;;;9.20;99.90;;;;;;5060596;28;20169;-86
2020/12/04 06:43:00;;;;;;;0.10;0.10;;;9.20;99.90;;;;;;5067247;28;20949;-87
2020/12/04 06:45:46;;;;;;;0.10;0.10;;;9.20;99.90;;;;;;5054379;28;20017;-86
2020/12/04 06:48:17;;;;;;;0.17;0.17;;;9.20;99.90;;;;;;5057292;28;20019;-83
2020/12/04 06:50:46;;;;;;;0.35;0.35;;;9.30;99.90;;;;;;5048810;28;20025;-86
2020/12/04 06:53:13;;;;;;;0.25;0.25;;;9.30;99.90;;;;;;5063198;28;20260;-87
2020/12/04 06:55:41;;;;;;;0.10;0.10;;;9.30;99.90;;;;;;5060431;28;20028;-85
2020/12/04 06:58:07;;;;;;;0.10;0.10;;;9.30;99.90;;;;;;5067709;28;20548;-86
2020/12/04 07:00:34;;;;;;;3.13;2.88;;;9.40;99.90;;;;;;5068634;28;20017;-86
2020/12/04 07:03:00;;;;;;;;;;;9.30;99.90;;;;;;5056936;28;20500;-87
2020/12/04 07:05:27;;;;;;;0.80;0.80;;;9.30;99.90;;;;;;5059508;28;19959;-85
2020/12/04 07:08:07;;;;;;;0.47;0.47;;;9.30;99.90;;;;;;5061720;28;20041;-85
2020/12/04 07:10:34;;;;;;;1.17;1.00;;;9.40;99.90;;;;;;5056184;28;20077;-85
2020/12/04 07:13:02;;;;;;;1.52;1.15;;;9.40;99.90;;;;;;5055364;28;20382;-83
2020/12/04 07:15:28;;;;;;;1.05;1.05;;;9.50;99.90;;;;;;5063095;28;20029;-86
2020/12/04 07:17:55;;;;;;;1.67;1.30;;;9.50;99.90;;;;;;5061019;28;20085;-85
2020/12/04 07:20:21;;;;;;;2.90;2.47;;;9.40;99.90;;;;;;5068216;28;20021;-87
2020/12/04 07:22:47;;;;;;;0.15;0.15;;;9.40;99.90;;;;;;5062774;28;20525;-86
2020/12/04 07:25:13;;;;;;;0.00;0.00;;;9.40;99.90;;;;;;5061627;28;20366;-86
2020/12/04 07:27:39;;;;;;;0.00;0.00;;;9.50;99.90;;;;;;5065282;28;20029;-87
2020/12/04 07:30:21;;;;;;;0.10;0.10;;;9.40;99.90;;;;;;5061084;28;20016;-86
2020/12/04 07:32:54;;;;;;;0.93;0.90;;;9.40;99.90;;;;;;5053821;28;20039;-85
2020/12/04 07:35:21;;;;;;;3.20;2.20;;;9.40;99.90;;;;;;5055534;28;20032;-84
2020/12/04 07:37:46;;;;;;;;;;;9.50;99.90;;;;;;5067275;28;20032;-85
2020/12/04 07:40:14;;;;;;;0.70;0.70;;;9.50;99.90;;;;;;5056634;28;19924;-85
2020/12/04 07:42:40;;;;;;;0.20;0.20;;;9.40;99.90;;;;;;5051983;28;20036;-84
2020/12/04 07:45:06;;;;;;;0.15;0.15;;;9.50;99.90;;;;;;5057459;28;20036;-85
2020/12/04 07:47:32;;;;;;;0.20;0.20;;;9.50;99.90;;;;;;5060367;28;20021;-86
2020/12/04 07:50:02;;;;;;;0.10;0.10;;;9.40;99.90;;;;;;5057054;28;20027;-85
2020/12/04 07:52:36;;;;;;;0.60;0.60;;;9.40;99.90;;;;;;5058864;28;20044;-86
2020/12/04 07:55:05;;;;;;;0.30;0.30;;;9.50;99.90;;;;;;5048282;28;20025;-84
2020/12/04 07:57:55;;;;;;;0.30;0.30;;;9.50;99.90;;;;;;5062203;28;20051;-85
2020/12/04 08:00:22;;;;;;;0.10;0.10;;;9.60;99.90;;;;;;5066672;28;20055;-85
2020/12/04 08:02:48;;;;;;;0.10;0.10;;;9.60;99.90;;;;;;5065518;28;20036;-86
2020/12/04 08:05:21;;;;;;;0.10;0.10;;;9.60;99.90;;;;;;5060614;28;20097;-84
2020/12/04 08:07:52;;;;;;;0.10;0.10;;;9.60;99.90;;;;;;5058057;28;20440;-84
2020/12/04 08:10:19;;;;;;;0.17;0.17;;;9.60;99.90;;;;;;5068070;28;20025;-83
2020/12/04 08:12:48;;;;;;;0.10;0.10;;;9.50;99.90;;;;;;5067759;28;20029;-83
2020/12/04 08:15:15;;;;;;;0.05;0.05;;;9.50;99.90;;;;;;5062173;28;20021;-83
2020/12/04 08:17:41;;;;;;;1.98;1.52;;;9.50;99.90;;;;;;5060165;28;20024;-83
2020/12/04 08:20:15;;;;;;;0.10;0.10;;;9.40;99.90;;;;;;5067723;28;20023;-83
2020/12/04 08:22:41;;;;;;;0.00;0.00;;;9.40;99.90;;;;;;5066471;28;20053;-83
2020/12/04 08:25:07;;;;;;;0.10;0.10;;;9.20;99.90;;;;;;5068023;28;20032;-83
2020/12/04 08:27:35;;;;;;;0.10;0.10;;;9.20;99.90;;;;;;5061310;28;20052;-83
2020/12/04 08:30:15;;;;;;;0.10;0.10;;;8.90;99.90;;;;;;5060018;28;20028;-83
2020/12/04 08:32:53;;;;;;;0.10;0.10;;;9.10;99.90;;;;;;5067688;28;20028;-83
2020/12/04 08:35:23;;;;;;;0.10;0.10;;;8.90;99.90;;;;;;5067801;28;20040;-83
2020/12/04 08:37:51;;;;;;;0.10;0.10;;;9.10;99.90;;;;;;5053502;28;20127;-83
2020/12/04 08:40:29;;;;;;;0.10;0.10;;;9.00;99.90;;;;;;5055482;28;20036;-83
2020/12/04 08:43:14;;;;;;;0.10;0.10;;;9.10;99.90;;;;;;5066339;28;20116;-84
2020/12/04 08:45:45;;;;;;;0.10;0.10;;;9.00;99.90;;;;;;5062015;28;20019;-84
2020/12/04 08:48:17;;;;;;;0.10;0.10;;;9.00;99.90;;;;;;5059079;28;20032;-84
2020/12/04 08:50:47;;;;;;;0.10;0.10;;;8.90;99.90;;;;;;5047349;28;20047;-83
2020/12/04 08:53:16;;;;;;;0.52;0.47;;;8.90;99.90;;;;;;5047653;28;20122;-84
2020/12/04 08:55:50;;;;;;;0.30;0.30;;;8.80;99.90;;;;;;5059353;28;20468;-83
2020/12/04 08:58:17;;;;;;;0.10;0.10;;;9.00;99.90;;;;;;5062930;28;20029;-84
2020/12/04 09:00:45;;;;;;;0.20;0.20;;;9.00;99.90;;;;;;5063710;28;20021;-83
2020/12/04 09:03:11;;;;;;;0.10;0.10;;;9.10;99.90;;;;;;5071073;28;20029;-84
2020/12/04 09:05:37;;;;;;;0.10;0.10;;;9.00;99.90;;;;;;5071167;28;20016;-84
2020/12/04 09:08:04;;;;;;;0.10;0.10;;;9.30;99.90;;;;;;5053831;28;20108;-83
2020/12/04 09:10:30;;;;;;;0.08;0.08;;;9.40;99.90;;;;;;5058803;28;20779;-83
2020/12/04 09:12:56;;;;;;;0.10;0.10;;;9.50;99.90;;;;;;5069370;28;20520;-82
2020/12/04 09:15:23;;;;;;;0.10;0.10;;;9.50;99.90;;;;;;5071011;28;20501;-83
2020/12/04 09:17:49;;;;;;;0.20;0.20;;;9.60;99.90;;;;;;5069907;28;20086;-82
2020/12/04 09:20:15;;;;;;;0.60;0.60;;;9.60;99.90;;;;;;5056004;28;20031;-83
2020/12/04 09:22:41;;;;;;;0.20;0.20;;;9.70;99.90;;;;;;5070825;28;20052;-83
2020/12/04 09:25:09;;;;;;;0.10;0.10;;;9.80;99.90;;;;;;5070793;28;20029;-83
2020/12/04 09:27:35;;;;;;;0.10;0.10;;;10.00;99.90;;;;;;5070676;28;20397;-83
2020/12/04 09:30:03;;;;;;;0.10;0.10;;;10.20;99.90;;;;;;5070766;28;20066;-83
2020/12/04 09:32:29;;;;;;;0.10;0.10;;;10.20;99.90;;;;;;5070743;28;20024;-84
2020/12/04 09:34:55;;;;;;;0.10;0.10;;;10.30;99.90;;;;;;5060409;28;20445;-84
2020/12/04 09:37:25;;;;;;;0.10;0.10;;;10.70;99.90;;;;;;5064453;28;20029;-84
2020/12/04 09:39:53;;;;;;;0.10;0.10;;;10.50;99.90;;;;;;5062118;28;20353;-83
2020/12/04 09:42:20;;;;;;;0.10;0.10;;;10.40;99.90;;;;;;5050182;28;20041;-84
2020/12/04 09:44:46;;;;;;;;;;;10.30;99.90;;;;;;5062702;28;20051;-84
2020/12/04 09:47:13;;;;;;;0.10;0.10;;;10.10;99.90;;;;;;5063860;28;20373;-83
2020/12/04 09:49:40;;;;;;;0.10;0.10;;;10.00;99.90;;;;;;5070523;28;20067;-83
2020/12/04 09:52:06;;;;;;;0.00;0.00;;;10.00;99.90;;;;;;5070364;28;20020;-82
2020/12/04 09:54:36;;;;;;;0.10;0.10;;;9.90;99.90;;;;;;5070440;28;20020;-83
2020/12/04 09:57:04;;;;;;;0.10;0.10;;;10.00;99.90;;;;;;5060066;28;20255;-83
2020/12/04 09:59:30;;;;;;;0.10;0.10;;;10.00;99.90;;;;;;5066962;28;20078;-83
2020/12/04 10:01:56;;;;;;;0.10;0.10;;;10.10;99.90;;;;;;5070221;28;20028;-83
2020/12/04 10:04:24;;;;;;;0.10;0.10;;;10.00;99.90;;;;;;5068269;28;20020;-83
2020/12/04 10:06:51;;;;;;;0.10;0.10;;;10.20;99.90;;;;;;5055985;28;20020;-83
2020/12/04 10:09:17;;;;;;;0.10;0.10;;;10.20;99.90;;;;;;5057122;28;20080;-83
2020/12/04 10:11:43;;;;;;;0.40;0.40;;;10.10;99.90;;;;;;5063985;28;20028;-83
2020/12/04 10:14:09;;;;;;;0.10;0.10;;;10.00;99.90;;;;;;5061184;28;20100;-83
2020/12/04 10:16:35;;;;;;;0.10;0.10;;;9.90;99.90;;;;;;5070077;28;20485;-83
2020/12/04 10:19:01;;;;;;;0.10;0.10;;;10.00;99.90;;;;;;5062062;28;20169;-82
2020/12/04 10:21:32;;;;;;;0.10;0.10;;;10.00;99.90;;;;;;5069694;28;20528;-83
2020/12/04 10:23:57;;;;;;;0.10;0.10;;;10.00;99.90;;;;;;5068377;28;20251;-83
2020/12/04 10:26:23;;;;;;;0.03;0.03;;;10.00;99.90;;;;;;5069854;28;20032;-83
2020/12/04 10:28:49;;;;;;;0.13;0.13;;;10.10;99.90;;;;;;5067917;28;20047;-83
2020/12/04 10:31:15;;;;;;;0.20;0.20;;;10.00;99.90;;;;;;5048228;28;20025;-83
2020/12/04 10:33:41;;;;;;;0.20;0.20;;;10.10;99.90;;;;;;5048483;28;20036;-83
2020/12/04 10:36:07;;;;;;;0.10;0.10;;;10.20;99.90;;;;;;5054223;28;20115;-83
2020/12/04 10:38:33;;;;;;;0.75;0.75;;;10.30;99.90;;;;;;5069764;28;20687;-83
2020/12/04 10:40:59;;;;;;;0.10;0.10;;;10.30;99.90;;;;;;5069446;28;20127;-83
2020/12/04 10:43:26;;;;;;;0.73;0.73;;;10.40;99.90;;;;;;5059312;28;20100;-83
2020/12/04 10:45:52;;;;;;;0.10;0.10;;;10.60;99.90;;;;;;5051591;28;20021;-83
2020/12/04 10:48:18;;;;;;;0.82;0.82;;;10.90;99.90;;;;;;5069482;28;20024;-84
2020/12/04 10:50:45;;;;;;;0.45;0.45;;;11.10;99.90;;;;;;5069327;28;20067;-83
2020/12/04 10:53:11;;;;;;;0.22;0.22;;;11.40;99.90;;;;;;5069344;28;20017;-83
2020/12/04 10:55:37;;;;;;;0.20;0.20;;;11.10;99.90;;;;;;5069295;28;20028;-83
2020/12/04 10:58:03;;;;;;;0.15;0.15;;;11.00;99.90;;;;;;5069294;28;20031;-83
2020/12/04 11:00:30;;;;;;;0.10;0.10;;;10.80;99.90;;;;;;5057134;28;20071;-83
2020/12/04 11:03:08;;;;;;;0.10;0.10;;;11.00;99.90;;;;;;5065667;28;20028;-83
2020/12/04 11:05:40;;;;;;;0.10;0.10;;;11.10;99.90;;;;;;5069223;28;20123;-85
2020/12/04 11:08:05;;;;;;;0.20;0.20;;;11.00;99.90;;;;;;5053660;28;20020;-86
2020/12/04 11:10:31;;;;;;;0.10;0.10;;;11.10;99.90;;;;;;5068782;28;20035;-85
2020/12/04 11:12:57;;;;;;;0.40;0.40;;;11.10;99.90;;;;;;5066020;28;20035;-83
2020/12/04 11:15:23;;;;;;;0.55;0.55;;;10.90;99.90;;;;;;5055938;28;20032;-83
2020/12/04 11:17:49;;;;;;;0.10;0.10;;;11.20;99.90;;;;;;5060633;28;20825;-83
2020/12/04 11:20:16;;;;;;;0.10;0.10;;;11.40;99.90;;;;;;5066789;28;20036;-83
2020/12/04 11:22:43;;;;;;;0.73;0.73;;;11.10;99.90;;;;;;5067488;28;20044;-83
2020/12/04 11:25:09;;;;;;;;;;;11.20;99.90;;;;;;5068249;28;20082;-82
2020/12/04 11:27:40;;;;;;;0.20;0.20;;;11.00;99.90;;;;;;5068462;28;19912;-82
2020/12/04 11:30:06;;;;;;;0.95;0.93;;;12.60;99.90;;;;;;5067244;28;20107;-82
2020/12/04 11:32:33;;;;;;;0.85;0.85;;;12.10;99.90;;;;;;5068506;28;20103;-82
2020/12/04 11:34:59;;;;;;;0.85;0.85;;;12.00;99.90;;;;;;5057343;28;20028;-82
2020/12/04 11:37:26;;;;;;;1.47;1.10;;;11.50;99.90;;;;;;5065523;28;20054;-82
2020/12/04 11:39:51;;;;;;;0.60;0.60;;;11.30;99.90;;;;;;5068811;28;20277;-82
2020/12/04 11:42:17;;;;;;;0.73;0.73;;;10.60;99.90;;;;;;5068537;28;20028;-82
2020/12/04 11:44:43;;;;;;;0.45;0.45;;;10.20;99.90;;;;;;5062717;28;20040;-83
2020/12/04 11:47:09;;;;;;;0.10;0.10;;;10.10;99.90;;;;;;5061588;28;20063;-83
2020/12/04 11:49:34;;;;;;;0.95;0.90;;;10.20;99.90;;;;;;5054157;28;20107;-84
2020/12/04 11:52:00;;;;;;;0.13;0.13;;;10.30;99.90;;;;;;5057449;28;20035;-83
2020/12/04 11:54:26;;;;;;;0.20;0.20;;;10.20;99.90;;;;;;5048638;28;20033;-84
2020/12/04 11:56:52;;;;;;;0.20;0.20;;;10.30;99.90;;;;;;5052998;28;20163;-83
2020/12/04 11:59:18;;;;;;;0.08;0.08;;;10.20;99.90;;;;;;5061811;28;20032;-82
2020/12/04 12:01:44;;;;;;;0.10;0.10;;;10.20;99.90;;;;;;5066594;28;20501;-83
2020/12/04 12:04:12;;;;;;;0.32;0.32;;;10.10;99.90;;;;;;5068167;28;20501;-82
2020/12/04 12:06:38;;;;;;;0.10;0.10;;;10.40;99.90;;;;;;5064181;28;20204;-82
2020/12/04 12:09:04;;;;;;;0.15;0.15;;;10.40;99.90;;;;;;5066343;28;20032;-82
2020/12/04 12:11:30;;;;;;;0.10;0.10;;;10.50;99.90;;;;;;5062777;28;20159;-82
2020/12/04 12:13:55;;;;;;;0.10;0.10;;;10.60;99.90;;;;;;5058226;28;20401;-83
2020/12/04 12:16:22;;;;;;;0.10;0.10;;;10.70;99.90;;;;;;5054167;28;20052;-83
2020/12/04 12:18:49;;;;;;;0.10;0.10;;;10.40;99.90;;;;;;5049206;28;20120;-83
2020/12/04 12:21:15;;;;;;;0.10;0.10;;;10.40;99.90;;;;;;5034382;28;20053;-83
2020/12/04 12:23:41;;;;;;;0.20;0.20;;;10.60;99.90;;;;;;5049674;28;20029;-83
2020/12/04 12:26:07;;;;;;;0.10;0.10;;;11.50;99.90;;;;;;5052498;28;20013;-83
2020/12/04 12:28:34;;;;;;;0.10;0.10;;;11.80;99.90;;;;;;5054469;28;20051;-83
2020/12/04 12:31:01;;;;;;;0.10;0.10;;;11.60;99.90;;;;;;5058257;28;20139;-83
2020/12/04 12:33:26;;;;;;;0.10;0.10;;;11.40;99.90;;;;;;5061720;28;20025;-83
2020/12/04 12:35:52;;;;;;;1.02;0.55;;;11.10;99.90;;;;;;5057051;28;20035;-83
2020/12/04 12:38:18;;;;;;;0.38;0.38;;;10.60;99.90;;;;;;5055671;28;20047;-83
2020/12/04 12:40:44;;;;;;;0.10;0.10;;;10.40;99.90;;;;;;5057598;28;20090;-83
2020/12/04 12:43:09;;;;;;;0.00;0.00;;;10.10;99.90;;;;;;5058438;28;20029;-83
2020/12/04 12:45:35;;;;;;;0.10;0.10;;;10.40;99.90;;;;;;5053361;28;20018;-83
2020/12/04 12:48:02;;;;;;;0.00;0.00;;;10.30;99.90;;;;;;5059291;28;20104;-83
2020/12/04 12:50:28;;;;;;;0.43;0.43;;;10.30;99.90;;;;;;5056612;28;20094;-83
2020/12/04 12:52:54;;;;;;;0.10;0.10;;;10.50;99.90;;;;;;5055026;28;20036;-83
2020/12/04 12:55:20;;;;;;;0.15;0.15;;;10.10;99.90;;;;;;5060128;28;20021;-83
2020/12/04 12:57:46;;;;;;;0.25;0.25;;;10.40;99.90;;;;;;5054750;28;20040;-83
2020/12/04 13:00:13;;;;;;;12.00;1.55;;;10.00;99.90;;;;;;5052068;28;20509;-83
2020/12/04 13:02:39;;;;;;;0.10;0.10;;;9.80;99.90;;;;;;5053486;28;20124;-83
2020/12/04 13:05:31;;;;;;;0.10;0.10;;;9.90;99.90;;;;;;5052756;28;20103;-83
2020/12/04 13:07:50;;;;;;;0.10;0.10;;;9.90;99.90;;;;;;5063056;28;20044;-83
2020/12/04 13:10:17;;;;;;;0.43;0.43;;;10.30;99.90;;;;;;5063485;28;20497;-83
2020/12/04 13:12:45;;;;;;;0.47;0.47;;;10.30;99.90;;;;;;5064443;28;20984;-83
2020/12/04 13:15:11;;;;;;;0.10;0.10;;;10.20;99.90;;;;;;5070146;28;20535;-83
2020/12/04 13:17:37;;;;;;;0.10;0.10;;;10.20;99.90;;;;;;5056753;28;20052;-83
2020/12/04 13:20:03;;;;;;;0.10;0.10;;;10.00;99.90;;;;;;5054070;28;20086;-83
2020/12/04 13:22:29;;;;;;;0.10;0.10;;;9.70;99.90;;;;;;5066298;28;20315;-83
2020/12/04 13:24:54;;;;;;;0.10;0.10;;;9.60;99.90;;;;;;5067896;28;20029;-83
2020/12/04 13:27:20;;;;;;;0.10;0.10;;;9.60;99.90;;;;;;5066515;28;20021;-83
2020/12/04 13:29:46;;;;;;;0.10;0.10;;;9.80;99.90;;;;;;5059310;28;20389;-83
2020/12/04 13:32:12;;;;;;;0.10;0.10;;;9.60;99.90;;;;;;5063176;28;20040;-83
2020/12/04 13:34:39;;;;;;;0.10;0.10;;;8.80;99.90;;;;;;5055933;28;20409;-83
2020/12/04 13:37:08;;;;;;;0.10;0.10;;;8.40;99.90;;;;;;5059284;28;20052;-83
2020/12/04 13:39:33;;;;;;;0.20;0.20;;;7.80;99.90;;;;;;5066821;28;20054;-83
2020/12/04 13:42:03;;;;;;;0.10;0.10;;;7.20;99.90;;;;;;5054821;28;20055;-83
2020/12/04 13:44:29;;;;;;;0.00;0.00;;;6.90;99.90;;;;;;5053790;28;20052;-83
2020/12/04 13:46:56;;;;;;;0.55;0.52;;;6.70;99.90;;;;;;5058235;28;20056;-83
2020/12/04 13:49:23;;;;;;;0.10;0.10;;;6.90;99.90;;;;;;5051208;28;20164;-83
2020/12/04 13:51:51;;;;;;;0.10;0.10;;;7.30;99.90;;;;;;5050054;28;20044;-83
2020/12/04 13:54:18;;;;;;;0.10;0.10;;;7.30;99.90;;;;;;5056566;28;20033;-83
2020/12/04 13:56:44;;;;;;;0.30;0.30;;;7.20;99.90;;;;;;5059304;28;20036;-83
2020/12/04 13:59:10;;;;;;;0.10;0.10;;;7.00;99.90;;;;;;5054071;28;20056;-83
2020/12/04 14:01:39;;;;;;;0.10;0.10;;;6.90;99.90;;;;;;5064570;28;20057;-83
2020/12/04 14:04:06;;;;;;;0.10;0.10;;;6.70;99.90;;;;;;5061727;28;20124;-83
2020/12/04 14:06:31;;;;;;;;;;;6.50;99.90;;;;;;5070112;28;20021;-83
2020/12/04 14:08:58;;;;;;;0.10;0.10;;;6.50;99.90;;;;;;5062233;28;19909;-83
2020/12/04 14:11:24;;;;;;;0.00;0.00;;;6.20;99.90;;;;;;5053357;28;20056;-83
2020/12/04 14:13:50;;;;;;;0.10;0.10;;;6.20;99.90;;;;;;5069666;28;20032;-82
2020/12/04 14:16:16;;;;;;;0.10;0.10;;;6.10;99.90;;;;;;5057692;28;20029;-83
2020/12/04 14:18:42;;;;;;;0.32;0.32;;;5.90;99.90;;;;;;5058898;28;20615;-82
2020/12/04 14:21:10;;;;;;;0.10;0.10;;;5.90;99.90;;;;;;5060596;28;20508;-83
2020/12/04 14:23:36;;;;;;;0.45;0.30;;;5.80;99.90;;;;;;5068977;28;20489;-83
2020/12/04 14:26:03;;;;;;;0.10;0.10;;;5.60;99.90;;;;;;5068524;28;20029;-82
2020/12/04 14:28:29;;;;;;;0.20;0.20;;;5.60;99.90;;;;;;5054227;28;20260;-83
2020/12/04 14:30:55;;;;;;;0.10;0.10;;;5.50;99.90;;;;;;5065670;28;20028;-83
2020/12/04 14:33:22;;;;;;;0.10;0.10;;;5.40;99.90;;;;;;5060858;28;20024;-83
2020/12/04 14:35:48;;;;;;;;;;;5.30;99.90;;;;;;5063152;28;20153;-83
2020/12/04 14:41:00;;;;;;;0.10;0.10;;;5.30;21.00;;;;;;5064187;28;20032;-83
2020/12/04 14:43:27;;;;;;;0.20;0.20;;;5.40;26.80;;;;;;5065940;28;20397;-83
2020/12/04 14:45:53;;;;;;;0.10;0.10;;;5.60;1.00;;;;;;5063474;28;20033;-83
2020/12/04 14:48:19;;;;;;;0.05;0.05;;;5.80;1.00;;;;;;5066604;28;20071;-82
2020/12/04 14:50:44;;;;;;;0.10;0.10;;;5.90;99.90;;;;;;5064123;28;20479;-82
2020/12/04 14:53:11;;;;;;;0.10;0.10;;;5.80;99.90;;;;;;5065226;28;20113;-82
2020/12/04 14:55:36;;;;;;;0.10;0.10;;;5.70;95.00;;;;;;5065947;28;20608;-82
2020/12/04 14:58:02;;;;;;;0.10;0.10;;;5.70;92.40;;;;;;5066134;28;20032;-83
2020/12/04 15:00:31;;;;;;;0.10;0.10;;;5.50;99.90;;;;;;5065315;28;20628;-83
2020/12/04 15:02:59;;;;;;;0.10;0.10;;;5.50;99.90;;;;;;5047253;28;20408;-83
2020/12/04 15:05:25;;;;;;;0.10;0.10;;;5.50;90.50;;;;;;5051610;28;20040;-83
2020/12/04 15:07:51;;;;;;;0.10;0.10;;;5.60;77.80;;;;;;5061331;28;20154;-83
2020/12/04 15:10:17;;;;;;;2.10;0.63;;;5.80;76.70;;;;;;5055706;28;20608;-82
2020/12/04 15:12:43;;;;;;;0.10;0.10;;;5.80;72.10;;;;;;5060653;28;20083;-82
2020/12/04 15:15:08;;;;;;;0.10;0.10;;;5.90;69.50;;;;;;5063726;28;20032;-83
2020/12/04 15:17:36;;;;;;;0.10;0.10;;;5.80;67.60;;;;;;5062360;28;20055;-82
2020/12/04 15:20:03;;;;;;;0.10;0.10;;;5.70;72.20;;;;;;5051675;28;20901;-82